Time;durP1;ratioP1;P1;durP2;ratioP2;P2;SDS_P1;SDS_P2;PMS_P1;PMS_P2;Temp;Humidity;BMP_temperature;BMP_pressure;BME280_temperature;BME280_humidity;BME280_pressure;Samples;Min_cycle;Max_cycle;Signal;HPM_P1;HPM_P2
2022/07/23 00:01:59;;;;;;;13.73;6.90;;;22.70;99.90;;;;;;5094094;28;20143;-75
2022/07/23 00:04:28;;;;;;;9.90;7.20;;;22.70;99.90;;;;;;5093560;28;20048;-76
2022/07/23 00:06:56;;;;;;;9.07;7.93;;;22.60;99.90;;;;;;5075671;28;20070;-76
2022/07/23 00:09:23;;;;;;;10.68;7.72;;;22.60;99.90;;;;;;5094140;28;20052;-75
2022/07/23 00:11:51;;;;;;;11.10;6.80;;;22.60;99.90;;;;;;5093588;28;20054;-75
2022/07/23 00:14:18;;;;;;;8.68;6.95;;;22.50;99.90;;;;;;5058326;28;20422;-75
2022/07/23 00:16:46;;;;;;;11.73;7.07;;;22.50;99.90;;;;;;5092892;28;20048;-74
2022/07/23 00:19:13;;;;;;;15.85;8.65;;;22.40;99.90;;;;;;5093901;28;20459;-76
2022/07/23 00:21:42;;;;;;;14.35;7.75;;;22.40;99.90;;;;;;5093678;28;20062;-76
2022/07/23 00:24:10;;;;;;;11.10;7.65;;;22.40;99.90;;;;;;5074694;28;20048;-76
2022/07/23 00:26:37;;;;;;;12.88;7.20;;;22.40;99.90;;;;;;5074673;28;20083;-75
2022/07/23 00:29:05;;;;;;;13.15;6.70;;;22.30;99.90;;;;;;5075074;28;20097;-75
2022/07/23 00:31:32;;;;;;;12.18;7.15;;;22.30;99.90;;;;;;5093687;28;20059;-75
2022/07/23 00:34:00;;;;;;;10.90;7.38;;;22.20;99.90;;;;;;5057969;28;20535;-75
2022/07/23 00:36:28;;;;;;;10.70;7.00;;;22.10;99.90;;;;;;5092997;28;20044;-75
2022/07/23 00:38:57;;;;;;;10.50;7.80;;;22.10;99.90;;;;;;5074180;28;20044;-75
2022/07/23 00:41:25;;;;;;;11.82;7.35;;;22.00;99.90;;;;;;5057908;28;20423;-75
2022/07/23 00:43:53;;;;;;;13.90;7.93;;;22.10;99.90;;;;;;5074485;28;20396;-75
2022/07/23 00:46:21;;;;;;;10.10;6.95;;;22.00;99.90;;;;;;5074587;28;20082;-75
2022/07/23 00:48:48;;;;;;;205.35;153.27;;;22.00;99.90;;;;;;5057609;28;20044;-75
2022/07/23 00:51:17;;;;;;;16.52;11.48;;;21.90;99.90;;;;;;5074237;28;20530;-74
2022/07/23 00:53:45;;;;;;;10.27;8.40;;;21.90;99.90;;;;;;5074885;28;20097;-75
2022/07/23 00:56:14;;;;;;;15.27;7.72;;;21.90;99.90;;;;;;5074395;28;20102;-75
2022/07/23 00:58:44;;;;;;;13.25;8.20;;;21.90;99.90;;;;;;5092551;28;20056;-76
2022/07/23 01:01:12;;;;;;;8.77;7.88;;;21.90;99.90;;;;;;5058190;28;20078;-75
2022/07/23 01:03:40;;;;;;;12.98;7.80;;;21.80;99.90;;;;;;5092849;28;20414;-75
2022/07/23 01:06:08;;;;;;;30.20;20.77;;;21.80;99.90;;;;;;5092776;28;20048;-76
2022/07/23 01:08:36;;;;;;;13.82;8.43;;;21.80;99.90;;;;;;5092108;28;20051;-75
2022/07/23 01:11:04;;;;;;;12.40;8.52;;;21.80;99.90;;;;;;5074291;28;20416;-76
2022/07/23 01:13:32;;;;;;;15.60;9.52;;;21.80;99.90;;;;;;5074544;28;20585;-76
2022/07/23 01:16:00;;;;;;;9.05;8.25;;;21.80;99.90;;;;;;5092475;28;20091;-77
2022/07/23 01:18:27;;;;;;;13.20;9.00;;;21.80;99.90;;;;;;5057486;28;20048;-76
2022/07/23 01:20:55;;;;;;;14.40;8.55;;;21.80;99.90;;;;;;5074165;28;20127;-76
2022/07/23 01:23:24;;;;;;;17.10;9.07;;;21.80;99.90;;;;;;5073809;28;20060;-76
2022/07/23 01:25:56;;;;;;;12.55;8.63;;;21.80;99.90;;;;;;5073792;28;20113;-77
2022/07/23 01:28:26;;;;;;;10.23;8.20;;;21.80;99.90;;;;;;5073811;28;20082;-77
2022/07/23 01:30:55;;;;;;;12.23;8.52;;;21.80;99.90;;;;;;5074839;28;20044;-77
2022/07/23 01:33:22;;;;;;;20.80;8.80;;;21.80;99.90;;;;;;5074910;28;20048;-78
2022/07/23 01:35:50;;;;;;;10.35;9.10;;;21.80;99.90;;;;;;5058222;28;20245;-77
2022/07/23 01:38:24;;;;;;;11.50;8.88;;;21.70;99.90;;;;;;5057149;28;20475;-76
2022/07/23 01:40:52;;;;;;;13.15;8.82;;;21.70;99.90;;;;;;5073394;28;20101;-77
2022/07/23 01:43:19;;;;;;;12.18;8.65;;;21.70;99.90;;;;;;5056767;28;20048;-77
2022/07/23 01:45:47;;;;;;;12.85;9.48;;;21.70;99.90;;;;;;5056915;28;20078;-77
2022/07/23 01:48:16;;;;;;;13.57;9.15;;;21.70;99.90;;;;;;5073372;28;20072;-77
2022/07/23 01:51:04;;;;;;;10.35;8.38;;;21.70;99.90;;;;;;5091463;28;20059;-77
2022/07/23 01:53:43;;;;;;;13.32;9.18;;;21.70;99.90;;;;;;5073804;28;20052;-78
2022/07/23 01:56:11;;;;;;;12.32;8.95;;;21.70;99.90;;;;;;5073812;28;20142;-77
2022/07/23 01:58:38;;;;;;;13.93;9.48;;;21.70;99.90;;;;;;5091585;28;20048;-77
2022/07/23 02:01:06;;;;;;;13.25;9.05;;;21.70;99.90;;;;;;5073695;28;20101;-76
2022/07/23 02:03:34;;;;;;;12.63;8.73;;;21.60;99.90;;;;;;5073326;28;20048;-77
2022/07/23 02:06:02;;;;;;;10.65;8.70;;;21.60;99.90;;;;;;5073578;28;20059;-76
2022/07/23 02:08:32;;;;;;;12.30;7.93;;;21.60;99.90;;;;;;5073468;28;20044;-77
2022/07/23 02:11:04;;;;;;;11.02;9.07;;;21.60;99.90;;;;;;5057119;28;20072;-76
2022/07/23 02:13:35;;;;;;;14.60;9.30;;;21.60;99.90;;;;;;5074181;28;20048;-76
2022/07/23 02:16:03;;;;;;;13.23;8.48;;;21.60;99.90;;;;;;5091482;28;20052;-77
2022/07/23 02:18:31;;;;;;;17.08;9.38;;;21.50;99.90;;;;;;5073192;28;20052;-77
2022/07/23 02:20:58;;;;;;;15.20;9.10;;;21.50;99.90;;;;;;5056684;28;20056;-77
2022/07/23 02:23:25;;;;;;;12.07;8.90;;;21.50;99.90;;;;;;5072580;28;20143;-77
2022/07/23 02:25:54;;;;;;;17.50;9.73;;;21.50;99.90;;;;;;5073526;28;20047;-76
2022/07/23 02:28:23;;;;;;;15.43;9.35;;;21.50;99.90;;;;;;5091269;28;20134;-77
2022/07/23 02:30:51;;;;;;;11.98;8.70;;;21.50;99.90;;;;;;5091051;28;20083;-77
2022/07/23 02:33:19;;;;;;;14.13;9.20;;;21.50;99.90;;;;;;5072711;28;20064;-77
2022/07/23 02:35:47;;;;;;;13.88;9.10;;;21.50;99.90;;;;;;5073128;28;20044;-76
2022/07/23 02:38:16;;;;;;;12.13;9.32;;;21.50;99.90;;;;;;5091338;28;20052;-76
2022/07/23 02:40:43;;;;;;;12.15;9.52;;;21.50;99.90;;;;;;5072469;28;20048;-76
2022/07/23 02:43:11;;;;;;;13.60;9.43;;;21.50;99.90;;;;;;5055234;28;20052;-76
2022/07/23 02:45:41;;;;;;;11.43;9.25;;;21.50;99.90;;;;;;5072442;28;20048;-77
2022/07/23 02:48:12;;;;;;;14.57;10.10;;;21.60;99.90;;;;;;5055633;28;20440;-77
2022/07/23 02:50:40;;;;;;;12.43;10.15;;;21.60;99.90;;;;;;5072842;28;20044;-76
2022/07/23 02:53:08;;;;;;;14.77;10.18;;;21.70;99.90;;;;;;5056263;28;20048;-76
2022/07/23 02:55:35;;;;;;;11.70;10.50;;;21.70;99.90;;;;;;5056340;28;20050;-77
2022/07/23 02:58:03;;;;;;;14.07;10.27;;;21.80;99.90;;;;;;5056005;28;20048;-75
2022/07/23 03:00:31;;;;;;;10.75;9.32;;;21.80;99.90;;;;;;5072472;28;20058;-75
2022/07/23 03:03:00;;;;;;;13.52;10.45;;;21.80;99.90;;;;;;5072854;28;20051;-76
2022/07/23 03:05:27;;;;;;;13.52;9.68;;;21.80;99.90;;;;;;5056315;28;20423;-78
2022/07/23 03:07:55;;;;;;;11.98;10.25;;;21.80;99.90;;;;;;5058700;28;20143;-76
2022/07/23 03:10:25;;;;;;;14.60;9.93;;;21.80;99.90;;;;;;5073869;28;20136;-77
2022/07/23 03:12:52;;;;;;;17.17;10.00;;;21.80;99.90;;;;;;5090470;28;20059;-77
2022/07/23 03:15:20;;;;;;;15.20;10.15;;;21.80;99.90;;;;;;5072726;28;20488;-76
2022/07/23 03:17:47;;;;;;;12.35;10.30;;;21.80;99.90;;;;;;5072346;28;20071;-76
2022/07/23 03:20:16;;;;;;;16.80;10.23;;;21.90;99.90;;;;;;5090807;28;20109;-76
2022/07/23 03:22:44;;;;;;;14.48;10.48;;;21.80;99.90;;;;;;5072607;28;20052;-76
2022/07/23 03:25:11;;;;;;;11.43;9.65;;;21.80;99.90;;;;;;5055868;28;20054;-77
2022/07/23 03:27:39;;;;;;;11.68;9.90;;;21.80;99.90;;;;;;5055595;28;20086;-77
2022/07/23 03:30:08;;;;;;;11.93;10.07;;;21.80;99.90;;;;;;5073484;28;20051;-76
2022/07/23 03:32:36;;;;;;;15.73;10.38;;;21.80;99.90;;;;;;5092669;28;20048;-78
2022/07/23 03:35:04;;;;;;;11.13;10.00;;;21.90;99.90;;;;;;5092073;28;20058;-75
2022/07/23 03:37:34;;;;;;;14.82;10.10;;;21.80;99.90;;;;;;5055600;28;20507;-76
2022/07/23 03:40:02;;;;;;;18.25;10.48;;;21.90;99.90;;;;;;5072742;28;20511;-76
2022/07/23 03:42:31;;;;;;;12.05;10.25;;;21.80;99.90;;;;;;5072169;28;20043;-76
2022/07/23 03:44:58;;;;;;;13.43;10.60;;;21.90;99.90;;;;;;5072133;28;20109;-76
2022/07/23 03:47:26;;;;;;;12.38;10.82;;;21.90;99.90;;;;;;5072037;28;20436;-77
2022/07/23 03:49:53;;;;;;;14.40;11.13;;;21.90;99.90;;;;;;5072017;28;20068;-76
2022/07/23 03:52:21;;;;;;;13.38;10.25;;;21.90;99.90;;;;;;5072889;28;20105;-76
2022/07/23 03:54:49;;;;;;;21.05;11.50;;;21.90;99.90;;;;;;5073932;28;20121;-77
2022/07/23 03:57:17;;;;;;;16.38;10.27;;;22.00;99.90;;;;;;5094654;28;20055;-75
2022/07/23 03:59:44;;;;;;;17.50;11.18;;;22.10;99.90;;;;;;5073309;28;20444;-76
2022/07/23 04:02:13;;;;;;;16.00;10.30;;;22.10;99.90;;;;;;5056643;28;20044;-76
2022/07/23 04:04:40;;;;;;;13.73;9.77;;;22.10;99.90;;;;;;5072266;28;20044;-76
2022/07/23 04:07:08;;;;;;;13.15;10.48;;;22.10;99.90;;;;;;5072829;28;20113;-77
2022/07/23 04:09:35;;;;;;;12.63;9.52;;;22.20;99.90;;;;;;5071986;28;20044;-76
2022/07/23 04:12:05;;;;;;;14.30;10.38;;;22.20;99.90;;;;;;5090411;28;20101;-75
2022/07/23 04:14:33;;;;;;;17.48;10.15;;;22.30;99.90;;;;;;5058758;28;20059;-76
2022/07/23 04:17:01;;;;;;;12.63;10.15;;;22.30;99.90;;;;;;5075460;28;20094;-76
2022/07/23 04:19:30;;;;;;;14.02;9.60;;;22.30;99.90;;;;;;5075320;28;20131;-76
2022/07/23 04:22:05;;;;;;;19.98;10.50;;;22.40;99.90;;;;;;5058916;28;20048;-76
2022/07/23 04:24:35;;;;;;;13.75;9.55;;;22.40;99.90;;;;;;5058240;28;20113;-76
2022/07/23 04:27:05;;;;;;;15.48;10.75;;;22.50;99.90;;;;;;5092973;28;20105;-76
2022/07/23 04:29:33;;;;;;;13.75;9.70;;;22.60;99.90;;;;;;5058602;28;20142;-78
2022/07/23 04:32:01;;;;;;;13.20;9.27;;;22.60;99.90;;;;;;5093512;28;20044;-77
2022/07/23 04:34:28;;;;;;;14.23;10.13;;;22.60;99.90;;;;;;5075488;28;20044;-76
2022/07/23 04:36:56;;;;;;;12.65;10.13;;;22.70;99.90;;;;;;5075149;28;20150;-75
2022/07/23 04:39:24;;;;;;;15.70;9.57;;;22.80;99.90;;;;;;5058655;28;20055;-77
2022/07/23 04:41:52;;;;;;;15.20;9.57;;;22.80;99.90;;;;;;5093119;28;20044;-77
2022/07/23 04:44:22;;;;;;;19.83;9.93;;;22.90;99.90;;;;;;5058515;28;20040;-75
2022/07/23 04:46:49;;;;;;;11.95;9.50;;;22.90;99.90;;;;;;5074615;28;20056;-77
2022/07/23 04:49:17;;;;;;;16.65;10.00;;;23.00;99.90;;;;;;5074965;28;20367;-76
2022/07/23 04:51:45;;;;;;;12.20;9.73;;;23.10;99.90;;;;;;5058092;28;20071;-76
2022/07/23 04:54:13;;;;;;;13.80;9.80;;;23.10;99.90;;;;;;5074984;28;20070;-76
2022/07/23 04:56:40;;;;;;;9.90;8.93;;;23.10;99.90;;;;;;5057793;28;20052;-77
2022/07/23 04:59:07;;;;;;;12.85;10.13;;;23.20;99.90;;;;;;5074466;28;20484;-76
2022/07/23 05:01:36;;;;;;;12.55;10.07;;;23.20;99.90;;;;;;5092769;28;20106;-76
2022/07/23 05:04:04;;;;;;;14.10;9.55;;;23.30;99.90;;;;;;5057796;28;20052;-77
2022/07/23 05:06:35;;;;;;;11.30;9.90;;;23.40;99.90;;;;;;5074367;28;20052;-77
2022/07/23 05:09:02;;;;;;;17.95;9.82;;;23.40;99.90;;;;;;5074764;28;20431;-77
2022/07/23 05:11:31;;;;;;;15.75;9.77;;;23.40;99.90;;;;;;5074414;28;20072;-77
2022/07/23 05:13:58;;;;;;;13.05;9.00;;;23.50;99.90;;;;;;5074608;28;20117;-77
2022/07/23 05:16:26;;;;;;;14.75;9.07;;;23.50;99.90;;;;;;5074577;28;20045;-76
2022/07/23 05:18:59;;;;;;;12.60;9.55;;;23.60;99.90;;;;;;5075309;28;20131;-75
2022/07/23 05:21:26;;;;;;;18.00;9.48;;;23.70;99.90;;;;;;5057123;28;20541;-76
2022/07/23 05:23:54;;;;;;;11.43;9.43;;;23.80;99.90;;;;;;5092115;28;20079;-76
2022/07/23 05:26:22;;;;;;;12.80;9.25;;;23.90;99.90;;;;;;5073940;28;20059;-77
2022/07/23 05:28:50;;;;;;;16.08;10.30;;;24.00;99.90;;;;;;5074074;28;20087;-78
2022/07/23 05:31:22;;;;;;;12.68;8.90;;;24.20;99.90;;;;;;5074543;28;20062;-77
2022/07/23 05:33:50;;;;;;;14.90;9.02;;;24.30;99.90;;;;;;5092288;28;20396;-77
2022/07/23 05:36:19;;;;;;;11.02;9.48;;;24.40;99.90;;;;;;5073592;28;20095;-78
2022/07/23 05:38:53;;;;;;;12.90;8.95;;;24.50;99.90;;;;;;5073880;28;20058;-78
2022/07/23 05:41:21;;;;;;;12.25;9.10;;;24.80;99.90;;;;;;5073890;28;20492;-78
2022/07/23 05:43:48;;;;;;;12.85;8.85;;;25.20;99.90;;;;;;5073425;28;20085;-78
2022/07/23 05:46:16;;;;;;;10.05;8.52;;;25.60;99.90;;;;;;5072880;28;20079;-78
2022/07/23 05:48:51;;;;;;;9.27;8.35;;;26.00;99.90;;;;;;5073443;28;20079;-77
2022/07/23 05:51:39;;;;;;;9.00;8.20;;;26.30;99.90;;;;;;5091059;28;20055;-80
2022/07/23 05:54:07;;;;;;;13.60;9.10;;;26.70;99.90;;;;;;5074230;28;20059;-77
2022/07/23 05:56:38;;;;;;;11.83;8.27;;;27.10;99.90;;;;;;5091556;28;20089;-77
2022/07/23 05:59:06;;;;;;;13.15;8.38;;;27.40;99.90;;;;;;5091878;28;20052;-77
2022/07/23 06:01:35;;;;;;;14.63;8.70;;;27.80;99.90;;;;;;5073435;28;20109;-77
2022/07/23 06:04:08;;;;;;;9.07;8.07;;;28.00;99.90;;;;;;5073463;28;20500;-78
2022/07/23 06:06:41;;;;;;;9.50;8.55;;;28.40;99.90;;;;;;5056984;28;20048;-77
2022/07/23 06:09:13;;;;;;;12.88;7.90;;;28.70;99.90;;;;;;5073931;28;20048;-78
2022/07/23 06:11:41;;;;;;;18.58;8.30;;;29.10;99.90;;;;;;5073273;28;20044;-78
2022/07/23 06:14:09;;;;;;;15.85;8.35;;;29.50;99.90;;;;;;5091343;28;20052;-78
2022/07/23 06:16:50;;;;;;;10.93;8.10;;;29.90;99.90;;;;;;5056299;28;20044;-78
2022/07/23 06:19:18;;;;;;;11.43;8.48;;;30.30;99.90;;;;;;5072717;28;20063;-78
2022/07/23 06:21:48;;;;;;;20.23;8.98;;;30.40;99.00;;;;;;5056212;28;20105;-77
2022/07/23 06:24:17;;;;;;;19.85;8.30;;;30.40;98.90;;;;;;5072842;28;20500;-78
2022/07/23 06:26:44;;;;;;;25.70;9.93;;;30.80;97.20;;;;;;5055906;28;20584;-78
2022/07/23 06:29:12;;;;;;;14.80;8.73;;;30.90;95.80;;;;;;5090753;28;20048;-78
2022/07/23 06:31:39;;;;;;;24.73;9.73;;;31.00;95.10;;;;;;5073333;28;20055;-78
2022/07/23 06:34:07;;;;;;;16.02;9.45;;;31.30;94.30;;;;;;5073165;28;20044;-77
2022/07/23 06:36:36;;;;;;;15.60;8.43;;;31.60;92.30;;;;;;5072840;28;20683;-78
2022/07/23 06:39:05;;;;;;;12.65;8.63;;;31.50;91.70;;;;;;5056406;28;20048;-78
2022/07/23 06:41:33;;;;;;;14.55;7.90;;;31.50;91.70;;;;;;5056598;28;20071;-78
2022/07/23 06:44:01;;;;;;;16.13;8.90;;;31.60;91.50;;;;;;5072768;28;20138;-78
2022/07/23 06:46:34;;;;;;;13.73;8.07;;;31.90;90.80;;;;;;5073327;28;20137;-77
2022/07/23 06:49:01;;;;;;;13.02;8.13;;;32.40;89.30;;;;;;5073327;28;20048;-78
2022/07/23 06:51:30;;;;;;;13.60;8.63;;;32.70;85.80;;;;;;5073113;28;20488;-77
2022/07/23 06:53:58;;;;;;;19.60;8.32;;;32.70;84.60;;;;;;5073288;28;20636;-78
2022/07/23 06:56:28;;;;;;;14.45;8.05;;;32.90;82.90;;;;;;5075026;28;20044;-77
2022/07/23 06:58:56;;;;;;;10.30;7.63;;;33.10;81.20;;;;;;5074517;28;20055;-78
2022/07/23 07:01:24;;;;;;;14.15;7.28;;;33.10;80.70;;;;;;5092143;28;20051;-78
2022/07/23 07:03:52;;;;;;;11.98;6.72;;;33.40;79.80;;;;;;5091335;28;20135;-77
2022/07/23 07:06:19;;;;;;;10.40;7.65;;;33.70;78.10;;;;;;5073187;28;20673;-77
2022/07/23 07:08:47;;;;;;;13.50;6.93;;;34.10;76.00;;;;;;5091440;28;20093;-78
2022/07/23 07:11:14;;;;;;;15.48;7.40;;;34.50;73.50;;;;;;5073681;28;20143;-80
2022/07/23 07:13:43;;;;;;;19.17;7.80;;;34.70;72.00;;;;;;5091514;28;20052;-79
2022/07/23 07:16:11;;;;;;;15.77;6.68;;;34.70;69.50;;;;;;5073171;28;20529;-78
2022/07/23 07:18:38;;;;;;;19.77;7.25;;;34.60;69.20;;;;;;5056750;28;20044;-78
2022/07/23 07:21:06;;;;;;;15.75;7.28;;;34.80;67.90;;;;;;5091001;28;20052;-78
2022/07/23 07:23:34;;;;;;;13.98;7.93;;;35.00;67.80;;;;;;5091269;28;20085;-78
2022/07/23 07:26:01;;;;;;;12.45;6.65;;;35.20;67.00;;;;;;5072411;28;20461;-78
2022/07/23 07:28:29;;;;;;;11.82;6.78;;;35.20;66.10;;;;;;5090670;28;20125;-78
2022/07/23 07:30:58;;;;;;;15.80;7.00;;;35.30;65.80;;;;;;5090538;28;20060;-77
2022/07/23 07:33:26;;;;;;;10.73;7.32;;;35.50;65.90;;;;;;5090636;28;20139;-78
2022/07/23 07:35:53;;;;;;;9.02;6.47;;;35.70;65.30;;;;;;5090485;28;20050;-78
2022/07/23 07:38:21;;;;;;;10.32;7.20;;;35.90;64.40;;;;;;5090587;28;20052;-80
2022/07/23 07:40:48;;;;;;;11.48;7.57;;;36.10;65.90;;;;;;5090722;28;20067;-77
2022/07/23 07:43:16;;;;;;;10.40;7.32;;;36.30;64.70;;;;;;5090317;28;20052;-78
2022/07/23 07:45:43;;;;;;;13.70;8.07;;;36.50;62.50;;;;;;5090026;28;20076;-78
2022/07/23 07:48:13;;;;;;;17.17;10.88;;;36.90;59.70;;;;;;5076264;28;20076;-77
2022/07/23 07:50:40;;;;;;;13.32;8.88;;;36.90;59.50;;;;;;5076494;28;20401;-78
2022/07/23 07:53:08;;;;;;;11.60;7.65;;;37.00;59.00;;;;;;5094413;28;20047;-79
2022/07/23 07:55:36;;;;;;;11.60;6.80;;;37.20;58.40;;;;;;5076474;28;20110;-80
2022/07/23 07:58:03;;;;;;;15.80;6.93;;;37.60;57.70;;;;;;5076716;28;20074;-78
2022/07/23 08:00:32;;;;;;;17.33;7.38;;;37.60;57.80;;;;;;5094475;28;20063;-77
2022/07/23 08:03:00;;;;;;;12.43;6.28;;;37.50;57.40;;;;;;5094358;28;20052;-78
2022/07/23 08:05:30;;;;;;;13.88;5.90;;;37.50;57.40;;;;;;5094659;28;20113;-78
2022/07/23 08:07:59;;;;;;;15.90;6.53;;;37.40;57.60;;;;;;5060232;28;20134;-79
2022/07/23 08:10:27;;;;;;;19.33;5.25;;;37.30;59.80;;;;;;5094168;28;20086;-79
2022/07/23 08:12:57;;;;;;;10.07;5.18;;;37.70;56.60;;;;;;5075972;28;20052;-79
2022/07/23 08:15:26;;;;;;;11.13;5.82;;;37.50;56.80;;;;;;5076256;28;20052;-80
2022/07/23 08:17:54;;;;;;;8.70;5.50;;;37.70;56.80;;;;;;5094537;28;20058;-79
2022/07/23 08:20:23;;;;;;;9.25;5.18;;;37.90;57.30;;;;;;5074104;28;20044;-78
2022/07/23 08:22:54;;;;;;;12.38;5.65;;;38.30;56.20;;;;;;5073819;28;20087;-79
2022/07/23 08:25:23;;;;;;;11.18;6.22;;;38.60;55.90;;;;;;5081326;28;20052;-79
2022/07/23 08:27:51;;;;;;;18.15;5.80;;;38.70;55.30;;;;;;5063119;28;20629;-78
2022/07/23 08:30:19;;;;;;;10.10;6.18;;;38.70;55.90;;;;;;5062967;28;20524;-79
2022/07/23 08:32:52;;;;;;;8.88;5.63;;;38.80;55.20;;;;;;5082247;28;20097;-77
2022/07/23 08:35:24;;;;;;;7.60;5.15;;;38.80;55.20;;;;;;5081216;28;20121;-78
2022/07/23 08:37:53;;;;;;;11.95;5.57;;;38.90;54.90;;;;;;5080861;28;20055;-78
2022/07/23 08:40:21;;;;;;;7.88;5.57;;;38.60;55.70;;;;;;5081260;28;20076;-79
2022/07/23 08:42:50;;;;;;;11.32;5.82;;;38.40;55.80;;;;;;5081601;28;20436;-78
2022/07/23 08:45:20;;;;;;;124.10;16.75;;;38.50;55.20;;;;;;5083168;28;20052;-79
2022/07/23 08:47:53;;;;;;;9.77;6.20;;;38.40;56.00;;;;;;5082070;28;20529;-78
2022/07/23 08:50:21;;;;;;;10.65;6.13;;;38.30;55.30;;;;;;5081081;28;20072;-79
2022/07/23 08:52:51;;;;;;;10.75;6.10;;;38.20;55.40;;;;;;5080736;28;20151;-79
2022/07/23 08:55:22;;;;;;;13.93;6.60;;;38.00;55.60;;;;;;5064331;28;20410;-79
2022/07/23 08:57:51;;;;;;;6.43;5.18;;;37.80;56.10;;;;;;5081207;28;20040;-81
2022/07/23 09:00:21;;;;;;;9.18;6.10;;;38.00;55.80;;;;;;5096653;28;20044;-79
2022/07/23 09:02:48;;;;;;;6.53;5.78;;;37.90;56.10;;;;;;5082018;28;20074;-78
2022/07/23 09:05:17;;;;;;;7.30;5.50;;;37.90;56.30;;;;;;5093302;28;20043;-77
2022/07/23 09:08:07;;;;;;;12.30;5.60;;;38.10;55.40;;;;;;5093464;28;20044;-84
2022/07/23 09:10:48;;;;;;;8.10;5.80;;;38.30;56.10;;;;;;5066994;28;20516;-81
2022/07/23 09:13:35;;;;;;;14.25;5.47;;;38.70;54.50;;;;;;5083064;28;20044;-82
2022/07/23 09:16:06;;;;;;;19.33;6.18;;;38.30;54.80;;;;;;5083597;28;20055;-85
2022/07/23 09:18:41;;;;;;;15.27;7.05;;;37.60;55.80;;;;;;5080981;28;20102;-81
2022/07/23 09:21:10;;;;;;;19.83;6.50;;;37.40;56.30;;;;;;5081587;28;20048;-81
2022/07/23 09:23:39;;;;;;;19.23;6.85;;;36.60;56.70;;;;;;5083095;28;20524;-83
2022/07/23 09:26:21;;;;;;;18.00;6.00;;;36.40;57.80;;;;;;5046088;28;20044;-81
2022/07/23 09:28:55;;;;;;;11.35;5.63;;;37.40;57.70;;;;;;5084463;28;20049;-83
2022/07/23 09:31:23;;;;;;;10.57;5.82;;;37.30;56.50;;;;;;5082272;28;20566;-81
2022/07/23 09:33:51;;;;;;;7.97;6.45;;;37.10;56.60;;;;;;5061348;28;20131;-82
2022/07/23 09:36:29;;;;;;;14.73;5.57;;;35.70;58.20;;;;;;5082227;28;20143;-81
2022/07/23 09:38:57;;;;;;;12.63;5.68;;;34.90;59.70;;;;;;5055667;28;20059;-80
2022/07/23 09:41:26;;;;;;;12.10;5.68;;;34.40;59.30;;;;;;5087351;28;20512;-82
2022/07/23 09:43:57;;;;;;;15.05;6.40;;;33.80;60.20;;;;;;5081281;28;20036;-81
2022/07/23 09:46:26;;;;;;;15.13;6.13;;;33.70;61.00;;;;;;5080777;28;20052;-83
2022/07/23 09:48:56;;;;;;;10.40;5.93;;;34.30;60.00;;;;;;5081166;28;20044;-84
2022/07/23 09:51:32;;;;;;;15.65;5.38;;;34.30;59.40;;;;;;5064074;28;20575;-85
2022/07/23 09:54:00;;;;;;;13.40;5.63;;;33.50;61.00;;;;;;5046798;28;20043;-84
2022/07/23 09:56:29;;;;;;;14.23;5.70;;;32.80;62.80;;;;;;5083238;28;20070;-82
2022/07/23 09:59:04;;;;;;;9.98;5.35;;;33.70;61.50;;;;;;5081550;28;20079;-83
2022/07/23 10:01:32;;;;;;;8.02;4.97;;;35.20;58.30;;;;;;5062925;28;20063;-83
2022/07/23 10:04:00;;;;;;;8.90;5.57;;;35.90;57.50;;;;;;5062441;28;20036;-81
2022/07/23 10:06:59;;;;;;;5.30;4.80;;;36.80;55.80;;;;;;5082483;28;20505;-85
2022/07/23 10:10:09;;;;;;;7.70;5.47;;;36.90;54.30;;;;;;5020745;28;20553;-85
2022/07/23 10:15:37;;;;;;;12.52;4.95;;;35.90;57.10;;;;;;5016898;28;20264;-85
2022/07/23 10:18:05;;;;;;;13.23;5.50;;;37.10;55.70;;;;;;5067031;28;20106;-84
2022/07/23 10:20:33;;;;;;;16.30;5.78;;;38.00;54.10;;;;;;5072392;28;20055;-84
2022/07/23 10:23:17;;;;;;;9.20;4.72;;;38.10;54.10;;;;;;5071841;28;20048;-87
2022/07/23 10:25:55;;;;;;;18.27;5.10;;;38.10;53.50;;;;;;5096264;28;20134;-85
2022/07/23 10:28:50;;;;;;;13.00;5.20;;;37.60;52.90;;;;;;5076682;28;20131;-85
2022/07/23 10:31:29;;;;;;;19.48;5.60;;;36.30;54.70;;;;;;5082750;28;20075;-85
2022/07/23 10:34:07;;;;;;;8.70;5.60;;;35.30;55.90;;;;;;5054449;28;20124;-85
2022/07/23 10:36:41;;;;;;;7.90;5.35;;;34.30;57.70;;;;;;5072995;28;20037;-86
2022/07/23 10:39:16;;;;;;;9.68;5.07;;;33.70;58.90;;;;;;5073224;28;20086;-84
2022/07/23 10:41:44;;;;;;;13.90;5.88;;;33.60;58.90;;;;;;5055418;28;20612;-85
2022/07/23 10:44:16;;;;;;;11.35;5.75;;;33.60;59.40;;;;;;5056117;28;20053;-84
2022/07/23 10:47:10;;;;;;;10.98;5.40;;;35.10;57.70;;;;;;5073614;28;20040;-84
2022/07/23 10:49:41;;;;;;;13.90;5.90;;;36.20;55.70;;;;;;5073172;28;20743;-84
2022/07/23 10:52:22;;;;;;;9.23;5.23;;;36.10;55.90;;;;;;5073818;28;20048;-82
2022/07/23 10:54:51;;;;;;;;;;;37.30;53.60;;;;;;5076874;28;20044;-85
2022/07/23 10:57:19;;;;;;;15.05;5.03;;;37.80;52.40;;;;;;5065539;28;19924;-84
2022/07/23 11:00:25;;;;;;;11.25;4.85;;;38.10;51.90;;;;;;5072619;28;20056;-85
2022/07/23 11:02:54;;;;;;;8.25;5.00;;;37.30;52.40;;;;;;4992820;28;20064;-85
2022/07/23 11:05:23;;;;;;;11.15;4.63;;;36.50;54.10;;;;;;4996379;28;20507;-85
2022/07/23 11:08:21;;;;;;;7.63;5.10;;;37.40;53.10;;;;;;5028346;28;20048;-85
2022/07/23 11:10:52;;;;;;;13.57;5.93;;;38.50;51.60;;;;;;5076631;28;20045;-86
2022/07/23 11:13:36;;;;;;;6.13;4.60;;;38.40;52.40;;;;;;5073962;28;20059;-84
2022/07/23 11:16:25;;;;;;;7.63;5.07;;;39.30;50.00;;;;;;5079546;28;20535;-84
2022/07/23 11:19:09;;;;;;;16.70;6.07;;;39.50;48.90;;;;;;5087178;28;20105;-85
2022/07/23 11:21:48;;;;;;;9.55;5.45;;;39.70;49.00;;;;;;5062713;28;20044;-85
2022/07/23 11:24:22;;;;;;;14.95;5.53;;;39.40;49.40;;;;;;5078707;28;20508;-83
2022/07/23 11:27:02;;;;;;;8.93;5.28;;;39.10;49.30;;;;;;5078473;28;20101;-84
2022/07/23 11:29:52;;;;;;;13.00;5.53;;;38.10;50.00;;;;;;5098819;28;20040;-85
2022/07/23 11:32:42;;;;;;;15.80;6.20;;;36.50;52.60;;;;;;5080025;28;20508;-85
2022/07/23 11:35:21;;;;;;;13.57;6.45;;;35.30;56.40;;;;;;5080632;28;20048;-83
2022/07/23 11:37:53;;;;;;;15.23;7.50;;;33.90;60.00;;;;;;5078204;28;20055;-84
2022/07/23 11:40:22;;;;;;;23.98;6.93;;;32.80;63.30;;;;;;5063565;28;20532;-84
2022/07/23 11:42:55;;;;;;;19.58;6.07;;;32.00;66.30;;;;;;5077475;28;20052;-82
2022/07/23 11:45:24;;;;;;;13.88;5.70;;;31.40;68.30;;;;;;5062754;28;20040;-85
2022/07/23 11:47:53;;;;;;;13.00;5.70;;;30.80;70.20;;;;;;5095655;28;20055;-83
2022/07/23 11:50:25;;;;;;;9.55;6.57;;;30.40;72.30;;;;;;5089379;28;20067;-83
2022/07/23 11:52:53;;;;;;;15.85;6.50;;;30.10;73.60;;;;;;5083893;28;20098;-81
2022/07/23 11:55:21;;;;;;;14.30;6.07;;;29.80;75.60;;;;;;5056542;28;20051;-80
2022/07/23 11:57:49;;;;;;;7.03;5.60;;;29.50;76.60;;;;;;5093485;28;20052;-80
2022/07/23 12:00:18;;;;;;;10.90;5.85;;;29.20;77.20;;;;;;5064365;28;20653;-79
2022/07/23 12:02:48;;;;;;;10.10;5.65;;;28.90;78.90;;;;;;5075803;28;20044;-79
2022/07/23 12:05:18;;;;;;;8.40;5.80;;;28.60;80.30;;;;;;5088753;28;20044;-79
2022/07/23 12:07:50;;;;;;;8.80;6.03;;;28.40;82.50;;;;;;5085129;28;20051;-78
2022/07/23 12:10:19;;;;;;;8.77;5.78;;;28.20;84.50;;;;;;5094061;28;20040;-79
2022/07/23 12:12:50;;;;;;;9.88;6.32;;;27.80;86.00;;;;;;5096549;28;20056;-83
2022/07/23 12:15:19;;;;;;;7.40;6.10;;;27.60;87.60;;;;;;5096636;28;20040;-84
2022/07/23 12:17:49;;;;;;;9.55;5.75;;;27.50;88.80;;;;;;5090911;28;20074;-84
2022/07/23 12:20:21;;;;;;;9.63;6.47;;;27.30;88.60;;;;;;5064250;28;20056;-83
2022/07/23 12:22:50;;;;;;;17.75;7.03;;;27.30;89.80;;;;;;5083762;28;20462;-83
2022/07/23 12:25:19;;;;;;;10.43;7.10;;;27.30;90.60;;;;;;5079178;28;20062;-84
2022/07/23 12:27:47;;;;;;;21.63;8.18;;;27.60;91.10;;;;;;5083923;28;20393;-85
2022/07/23 12:30:24;;;;;;;14.65;7.70;;;27.80;92.00;;;;;;5063676;28;20076;-83
2022/07/23 12:32:53;;;;;;;11.75;7.72;;;28.40;92.70;;;;;;5081270;28;20047;-83
2022/07/23 12:35:23;;;;;;;9.57;6.88;;;29.20;90.80;;;;;;5076930;28;20449;-83
2022/07/23 12:37:55;;;;;;;12.43;6.85;;;29.70;89.50;;;;;;5075361;28;20048;-81
2022/07/23 12:40:23;;;;;;;;;;;30.80;86.50;;;;;;5083356;28;20040;-83
2022/07/23 12:42:55;;;;;;;9.98;6.70;;;31.10;84.00;;;;;;5076070;28;20452;-84
2022/07/23 12:45:23;;;;;;;11.88;7.40;;;30.70;84.70;;;;;;5087151;28;20044;-83
2022/07/23 12:48:05;;;;;;;9.93;6.93;;;30.10;84.60;;;;;;5068390;28;20093;-82
2022/07/23 12:50:50;;;;;;;7.93;6.90;;;29.60;88.20;;;;;;5084054;28;20102;-84
2022/07/23 12:53:20;;;;;;;9.95;7.15;;;29.30;89.50;;;;;;5079237;28;20413;-84
2022/07/23 12:55:49;;;;;;;8.30;6.55;;;29.10;90.20;;;;;;5083071;28;20052;-83
2022/07/23 12:58:18;;;;;;;11.77;6.43;;;29.40;90.10;;;;;;5063719;28;20070;-83